createdAt,value
2023-04-21T00:01:37.786Z,91.66
2023-04-21T00:03:54.914Z,90.64
2023-04-21T00:06:12.137Z,91.33
2023-04-21T00:08:30.408Z,91.53
2023-04-21T00:10:47.575Z,91.03
2023-04-21T00:13:04.596Z,91.12
2023-04-21T00:15:21.970Z,91.73
2023-04-21T00:17:41.636Z,91.08
2023-04-21T00:19:58.626Z,91.54
2023-04-21T00:22:15.575Z,90.87
2023-04-21T00:24:33.535Z,89.80
2023-04-21T00:26:50.581Z,90.08
2023-04-21T00:29:07.921Z,89.86
2023-04-21T00:31:25.237Z,89.01
2023-04-21T00:33:42.628Z,89.99
2023-04-21T00:35:59.868Z,90.61
2023-04-21T00:38:19.218Z,90.64
2023-04-21T00:40:36.508Z,90.24
2023-04-21T00:42:53.853Z,90.39
2023-04-21T00:45:11.108Z,90.20
2023-04-21T00:47:28.428Z,90.43
2023-04-21T00:49:46.364Z,89.75
2023-04-21T00:52:03.684Z,90.33
2023-04-21T00:54:21.276Z,91.12
2023-04-21T00:56:39.281Z,91.12
2023-04-21T00:58:56.314Z,90.90
2023-04-21T01:01:13.667Z,90.57
2023-04-21T01:03:31.014Z,90.89
2023-04-21T01:05:48.211Z,91.25
2023-04-21T01:08:05.112Z,91.63
2023-04-21T01:10:22.098Z,91.51
2023-04-21T01:12:38.996Z,92.00
2023-04-21T01:14:56.078Z,91.75
2023-04-21T01:17:13.131Z,92.21
2023-04-21T01:19:30.555Z,91.71
2023-04-21T01:21:47.580Z,92.79
2023-04-21T01:24:04.859Z,92.84
2023-04-21T01:26:22.117Z,92.30
2023-04-21T01:28:39.191Z,92.60
2023-04-21T01:30:56.122Z,92.73
2023-04-21T01:33:13.242Z,92.63
2023-04-21T01:35:31.541Z,93.62
2023-04-21T01:37:48.658Z,93.90
2023-04-21T01:40:05.956Z,93.17
2023-04-21T01:42:23.270Z,93.74
2023-04-21T01:44:40.551Z,94.32
2023-04-21T01:46:57.801Z,92.78
2023-04-21T01:49:14.799Z,92.92
2023-04-21T01:51:32.121Z,93.49
2023-04-21T01:53:49.338Z,93.23
2023-04-21T01:56:06.289Z,93.36
2023-04-21T01:58:23.210Z,93.11
2023-04-21T02:00:41.469Z,92.96
2023-04-21T02:02:58.835Z,93.82
2023-04-21T02:05:16.113Z,93.80
2023-04-21T02:07:33.064Z,94.81
2023-04-21T02:09:50.056Z,93.79
2023-04-21T02:12:06.990Z,93.54
2023-04-21T02:14:24.135Z,93.85
2023-04-21T02:16:41.486Z,94.03
2023-04-21T02:18:58.746Z,93.80
2023-04-21T02:21:15.876Z,93.24
2023-04-21T02:23:32.872Z,92.92
2023-04-21T02:25:50.111Z,93.55
2023-04-21T02:28:08.396Z,93.51
2023-04-21T02:30:26.405Z,93.29
2023-04-21T02:32:43.888Z,93.44
2023-04-21T02:35:00.981Z,92.51
2023-04-21T02:37:17.892Z,93.12
2023-04-21T02:39:34.758Z,92.78
2023-04-21T02:41:52.072Z,93.14
2023-04-21T02:44:10.379Z,92.61
2023-04-21T02:46:28.678Z,92.41
2023-04-21T02:48:45.710Z,92.60
2023-04-21T02:51:03.034Z,93.69
2023-04-21T02:53:20.340Z,93.97
2023-04-21T02:55:37.453Z,93.74
2023-04-21T02:57:54.377Z,93.53
2023-04-21T03:00:11.421Z,93.33
2023-04-21T03:02:28.803Z,93.22
2023-04-21T03:04:45.939Z,94.05
2023-04-21T03:07:03.231Z,93.74
2023-04-21T03:09:20.366Z,94.16
2023-04-21T03:11:37.508Z,92.96
2023-04-21T03:13:54.529Z,93.16
2023-04-21T03:16:11.426Z,93.87
2023-04-21T03:18:28.715Z,94.02
2023-04-21T03:20:45.782Z,93.81
2023-04-21T03:23:03.130Z,93.61
2023-04-21T03:25:20.052Z,93.45
2023-04-21T03:27:37.375Z,92.80
2023-04-21T03:29:54.643Z,93.46
2023-04-21T03:32:11.777Z,93.32
2023-04-21T03:34:28.776Z,93.59
2023-04-21T03:36:45.805Z,92.96
2023-04-21T03:39:12.656Z,93.20
2023-04-21T03:41:35.912Z,93.39
2023-04-21T03:43:52.915Z,93.05
2023-04-21T03:46:09.962Z,93.30
2023-04-21T03:48:27.074Z,93.40
2023-04-21T03:50:45.072Z,93.27
2023-04-21T03:53:02.064Z,93.44
2023-04-21T03:55:18.999Z,92.68
2023-04-21T03:57:35.916Z,93.70
2023-04-21T03:59:52.993Z,93.08
2023-04-21T04:02:10.158Z,93.64
2023-04-21T04:04:28.821Z,93.72
2023-04-21T04:06:45.864Z,93.18
2023-04-21T04:09:03.906Z,93.65
2023-04-21T04:11:21.032Z,93.15
2023-04-21T04:13:38.101Z,92.71
2023-04-21T04:15:55.466Z,92.29
2023-04-21T04:18:12.490Z,92.27
2023-04-21T04:20:29.386Z,92.67
2023-04-21T04:22:46.653Z,92.84
2023-04-21T04:25:03.909Z,92.51
2023-04-21T04:27:21.183Z,92.83
2023-04-21T04:29:38.059Z,93.06
2023-04-21T04:31:55.336Z,93.02
2023-04-21T04:34:12.452Z,92.37
2023-04-21T04:36:29.543Z,93.26
2023-04-21T04:38:46.435Z,93.19
2023-04-21T04:41:03.734Z,92.97
2023-04-21T04:43:21.712Z,92.97
2023-04-21T04:45:38.738Z,92.38
2023-04-21T04:47:55.872Z,92.67
2023-04-21T04:50:12.950Z,92.10
2023-04-21T04:52:31.167Z,91.23
2023-04-21T04:54:48.108Z,91.84
2023-04-21T04:57:06.163Z,92.50
2023-04-21T04:59:23.514Z,92.40
2023-04-21T05:01:40.588Z,92.71
2023-04-21T05:03:57.959Z,92.61
2023-04-21T05:06:15.167Z,92.82
2023-04-21T05:08:32.194Z,92.31
2023-04-21T05:10:49.089Z,91.79
2023-04-21T05:13:06.081Z,93.29
2023-04-21T05:15:23.306Z,92.16
2023-04-21T05:17:40.716Z,92.50
2023-04-21T05:19:57.617Z,91.84
2023-04-21T05:22:14.887Z,92.37
2023-04-21T05:24:32.187Z,92.66
2023-04-21T05:26:49.125Z,93.34
2023-04-21T05:29:06.426Z,91.96
2023-04-21T05:31:23.473Z,91.73
2023-04-21T05:33:40.514Z,92.06
2023-04-21T05:35:57.862Z,92.30
2023-04-21T05:38:14.896Z,91.78
2023-04-21T05:40:32.129Z,92.18
2023-04-21T05:42:49.321Z,91.12
2023-04-21T05:45:07.673Z,89.71
2023-04-21T05:47:24.658Z,90.00
2023-04-21T05:49:41.943Z,89.92
2023-04-21T05:51:58.874Z,90.93
2023-04-21T05:54:15.817Z,89.62
2023-04-21T05:56:32.875Z,89.83
2023-04-21T05:58:49.911Z,90.90
2023-04-21T06:01:06.916Z,90.61
2023-04-21T06:03:25.239Z,90.27
2023-04-21T06:05:42.571Z,89.79
2023-04-21T06:07:59.548Z,89.66
2023-04-21T06:10:16.538Z,90.53
2023-04-21T06:12:33.720Z,88.69
2023-04-21T06:14:50.762Z,88.88
2023-04-21T06:17:07.754Z,88.49
2023-04-21T06:19:25.057Z,88.11
2023-04-21T06:21:42.076Z,88.79
2023-04-21T06:23:59.154Z,88.71
2023-04-21T06:26:16.166Z,88.60
2023-04-21T06:28:33.247Z,87.59
2023-04-21T06:30:50.578Z,87.52
2023-04-21T06:33:07.887Z,86.63
2023-04-21T06:35:24.832Z,86.69
2023-04-21T06:37:41.766Z,86.34
2023-04-21T06:39:59.061Z,84.86
2023-04-21T06:42:16.044Z,84.90
2023-04-21T06:44:33.089Z,86.44
2023-04-21T06:46:50.133Z,83.77
2023-04-21T06:49:07.458Z,83.99
2023-04-21T06:51:24.773Z,85.02
2023-04-21T06:53:42.075Z,84.12
2023-04-21T06:55:59.326Z,84.60
2023-04-21T06:58:17.325Z,84.46
2023-04-21T07:00:35.173Z,85.76
2023-04-21T07:02:52.561Z,84.09
2023-04-21T07:05:09.622Z,83.57
2023-04-21T07:07:26.570Z,83.54
2023-04-21T07:09:43.476Z,84.51
2023-04-21T07:12:00.500Z,83.58
2023-04-21T07:14:18.450Z,84.80
2023-04-21T07:16:35.764Z,85.85
2023-04-21T07:18:53.421Z,84.82
2023-04-21T07:21:11.884Z,84.68
2023-04-21T07:23:29.168Z,85.25
2023-04-21T07:25:46.247Z,85.73
2023-04-21T07:28:03.551Z,86.28
2023-04-21T07:30:20.602Z,85.08
2023-04-21T07:32:37.673Z,85.59
2023-04-21T07:34:55.514Z,85.79
2023-04-21T07:37:12.401Z,85.94
2023-04-21T07:39:30.402Z,84.90
2023-04-21T07:41:47.370Z,85.78
2023-04-21T07:44:05.619Z,85.05
2023-04-21T07:46:23.013Z,84.82
2023-04-21T07:48:40.339Z,85.43
2023-04-21T07:50:57.577Z,84.35
2023-04-21T07:53:14.807Z,84.23
2023-04-21T07:55:32.129Z,85.48
2023-04-21T07:57:49.449Z,84.25
2023-04-21T08:00:07.546Z,84.32
2023-04-21T08:02:24.746Z,85.46
2023-04-21T08:04:41.963Z,85.97
2023-04-21T08:06:59.317Z,85.57
2023-04-21T08:09:20.884Z,83.82
2023-04-21T08:14:12.645Z,85.88
2023-04-21T08:19:03.769Z,84.14
2023-04-21T08:21:20.838Z,83.65
2023-04-21T08:23:37.934Z,83.29
2023-04-21T08:25:55.260Z,82.48
2023-04-21T08:28:13.185Z,80.77
2023-04-21T08:30:30.229Z,82.57
2023-04-21T08:32:47.571Z,83.27
2023-04-21T08:35:04.942Z,81.79
2023-04-21T08:37:22.199Z,82.96
2023-04-21T08:39:39.132Z,81.28
2023-04-21T08:41:56.072Z,80.90
2023-04-21T08:44:13.442Z,78.02
2023-04-21T08:46:31.964Z,78.15
2023-04-21T08:48:49.036Z,79.16
2023-04-21T08:51:06.271Z,78.17
2023-04-21T08:53:23.541Z,76.24
2023-04-21T08:55:40.773Z,76.31
2023-04-21T08:57:58.115Z,76.15
2023-04-21T09:00:15.384Z,75.88
2023-04-21T09:02:32.467Z,74.25
2023-04-21T09:04:50.191Z,74.24
2023-04-21T09:07:07.652Z,74.02
2023-04-21T09:09:24.698Z,72.87
2023-04-21T09:11:41.717Z,71.83
2023-04-21T09:13:59.611Z,72.43
2023-04-21T09:16:17.624Z,73.97
2023-04-21T09:18:34.952Z,72.79
2023-04-21T09:20:52.200Z,74.09
2023-04-21T09:23:09.167Z,74.46
2023-04-21T09:25:26.125Z,72.14
2023-04-21T09:27:43.459Z,71.60
2023-04-21T09:30:01.365Z,71.38
2023-04-21T09:32:18.350Z,71.63
2023-04-21T09:34:36.402Z,69.31
2023-04-21T09:36:53.659Z,69.11
2023-04-21T09:41:30.839Z,67.05
2023-04-21T09:43:48.956Z,65.33
2023-04-21T09:46:05.900Z,66.07
2023-04-21T09:48:22.906Z,64.66
2023-04-21T09:51:22.115Z,66.58
2023-04-21T09:53:17.910Z,67.69
2023-04-21T09:55:35.196Z,66.17
2023-04-21T09:57:52.510Z,64.30
2023-04-21T10:00:09.757Z,64.43
2023-04-21T10:02:26.838Z,64.00
2023-04-21T10:04:44.439Z,62.50
2023-04-21T10:07:01.811Z,60.72
2023-04-21T10:09:18.796Z,62.71
2023-04-21T10:11:36.050Z,62.79
2023-04-21T10:13:52.936Z,63.88
2023-04-21T10:16:09.862Z,64.31
2023-04-21T10:18:26.940Z,61.96
2023-04-21T10:20:43.905Z,60.29
2023-04-21T10:23:00.953Z,60.48
2023-04-21T10:25:17.975Z,61.21
2023-04-21T10:27:34.944Z,61.58
2023-04-21T10:29:56.608Z,60.17
2023-04-21T10:32:14.316Z,59.55
2023-04-21T10:34:32.384Z,60.13
2023-04-21T10:36:49.421Z,58.63
2023-04-21T10:39:06.469Z,60.75
2023-04-21T10:41:23.483Z,61.81
2023-04-21T10:43:40.509Z,59.33
2023-04-21T10:45:57.556Z,57.98
2023-04-21T10:48:14.518Z,57.52
2023-04-21T10:50:31.542Z,57.96
2023-04-21T10:52:48.759Z,57.60
2023-04-21T10:55:05.784Z,58.47
2023-04-21T10:57:22.816Z,57.37
2023-04-21T10:59:40.059Z,58.65
2023-04-21T11:01:56.974Z,55.75
2023-04-21T11:04:14.532Z,56.30
2023-04-21T11:06:31.790Z,56.91
2023-04-21T11:08:48.814Z,53.89
2023-04-21T11:11:06.069Z,55.80
2023-04-21T11:13:23.158Z,53.34
2023-04-21T11:15:40.103Z,55.65
2023-04-21T11:17:57.120Z,53.65
2023-04-21T11:20:14.115Z,52.99
2023-04-21T11:22:31.254Z,55.89
2023-04-21T11:24:48.286Z,56.74
2023-04-21T11:27:05.529Z,54.20
2023-04-21T11:29:22.502Z,55.08
2023-04-21T11:31:39.579Z,56.20
2023-04-21T11:33:56.914Z,56.69
2023-04-21T11:36:14.213Z,54.05
2023-04-21T11:38:31.207Z,54.85
2023-04-21T11:40:48.263Z,53.62
2023-04-21T11:43:05.649Z,53.98
2023-04-21T11:45:23.101Z,52.51
2023-04-21T11:47:40.449Z,54.19
2023-04-21T11:49:57.423Z,56.24
2023-04-21T11:52:14.699Z,53.98
2023-04-21T11:54:31.967Z,52.71
2023-04-21T11:56:49.217Z,53.71
2023-04-21T11:59:06.146Z,53.93
2023-04-21T12:01:23.108Z,53.48
2023-04-21T12:03:40.066Z,53.26
2023-04-21T12:05:57.255Z,51.34
2023-04-21T12:08:14.500Z,53.80
2023-04-21T12:10:31.798Z,53.67
2023-04-21T12:12:48.791Z,53.24
2023-04-21T12:15:05.774Z,51.90
2023-04-21T12:17:22.852Z,51.39
2023-04-21T12:19:40.133Z,52.00
2023-04-21T12:21:57.054Z,50.92
2023-04-21T12:24:14.033Z,51.07
2023-04-21T12:26:31.242Z,51.50
2023-04-21T12:28:48.194Z,51.89
2023-04-21T12:31:05.281Z,52.32
2023-04-21T12:33:22.700Z,52.35
2023-04-21T12:35:39.781Z,51.00
2023-04-21T12:37:56.848Z,52.98
2023-04-21T12:40:14.046Z,52.84
2023-04-21T12:42:31.305Z,52.61
2023-04-21T12:44:48.562Z,50.57
2023-04-21T12:47:05.865Z,50.83
2023-04-21T12:49:23.111Z,50.18
2023-04-21T12:51:40.129Z,49.07
2023-04-21T12:53:57.049Z,49.36
2023-04-21T12:56:14.116Z,48.76
2023-04-21T12:58:31.367Z,48.31
2023-04-21T13:00:48.395Z,49.62
2023-04-21T13:03:05.830Z,47.89
2023-04-21T13:05:23.288Z,48.78
2023-04-21T13:07:40.382Z,50.49
2023-04-21T13:09:57.408Z,49.18
2023-04-21T13:12:14.420Z,49.67
2023-04-21T13:14:31.352Z,51.28
2023-04-21T13:16:48.406Z,51.61
2023-04-21T13:19:05.673Z,51.67
2023-04-21T13:21:22.950Z,52.78
2023-04-21T13:23:40.231Z,53.26
2023-04-21T13:25:57.144Z,53.56
2023-04-21T13:28:14.056Z,53.13
2023-04-21T13:30:31.316Z,55.26
2023-04-21T13:32:48.300Z,54.06
2023-04-21T13:35:05.360Z,54.01
2023-04-21T13:37:22.492Z,54.68
2023-04-21T13:39:39.554Z,55.10
2023-04-21T13:41:56.587Z,54.22
2023-04-21T13:44:13.603Z,52.71
2023-04-21T13:46:31.792Z,51.87
2023-04-21T13:48:48.918Z,52.18
2023-04-21T13:51:05.954Z,52.82
2023-04-21T13:53:23.314Z,52.25
2023-04-21T13:55:40.313Z,53.13
2023-04-21T13:57:57.223Z,52.23
2023-04-21T14:00:14.654Z,52.29
2023-04-21T14:02:31.890Z,53.20
2023-04-21T14:04:50.101Z,53.02
2023-04-21T14:07:07.172Z,50.67
2023-04-21T14:09:24.484Z,51.71
2023-04-21T14:11:41.522Z,51.30
2023-04-21T14:14:09.079Z,51.07
2023-04-21T14:16:26.759Z,52.47
2023-04-21T14:18:43.760Z,53.28
2023-04-21T14:21:00.700Z,51.88
2023-04-21T14:23:17.681Z,52.37
2023-04-21T14:25:35.679Z,53.67
2023-04-21T14:27:53.009Z,55.45
2023-04-21T14:30:10.252Z,54.48
2023-04-21T14:32:27.677Z,52.89
2023-04-21T14:34:44.916Z,53.65
2023-04-21T14:37:02.958Z,53.59
2023-04-21T14:39:20.325Z,53.40
2023-04-21T14:41:37.621Z,53.43
2023-04-21T14:43:54.715Z,51.94
2023-04-21T14:46:11.850Z,52.42
2023-04-21T14:48:28.890Z,53.07
2023-04-21T14:50:46.099Z,51.88
2023-04-21T14:53:03.406Z,53.35
2023-04-21T14:55:20.741Z,53.25
2023-04-21T14:57:37.955Z,54.89
2023-04-21T14:59:55.160Z,54.55
2023-04-21T15:02:12.264Z,53.87
2023-04-21T15:04:29.392Z,54.42
2023-04-21T15:06:46.666Z,52.48
2023-04-21T15:09:03.668Z,52.72
2023-04-21T15:11:21.753Z,52.51
2023-04-21T15:13:39.745Z,52.56
2023-04-21T15:15:57.032Z,52.51
2023-04-21T15:18:14.415Z,53.58
2023-04-21T15:20:43.772Z,52.34
2023-04-21T15:23:03.113Z,51.50
2023-04-21T15:25:20.027Z,52.06
2023-04-21T15:27:37.062Z,52.57
2023-04-21T15:29:53.958Z,51.73
2023-04-21T15:32:11.295Z,53.44
2023-04-21T15:34:28.298Z,54.90
2023-04-21T15:36:45.577Z,54.54
2023-04-21T15:39:02.831Z,54.92
2023-04-21T15:41:20.137Z,56.05
2023-04-21T15:43:37.369Z,55.65
2023-04-21T15:45:54.385Z,53.87
2023-04-21T15:48:11.541Z,55.30
2023-04-21T15:50:28.699Z,55.68
2023-04-21T15:52:45.973Z,55.05
2023-04-21T15:55:03.007Z,54.93
2023-04-21T15:57:19.890Z,55.13
2023-04-21T15:59:37.385Z,55.33
2023-04-21T16:01:54.392Z,56.03
2023-04-21T16:04:11.892Z,56.38
2023-04-21T16:06:29.372Z,56.36
2023-04-21T16:08:46.508Z,55.63
2023-04-21T16:11:03.575Z,59.56
2023-04-21T16:13:20.856Z,58.94
2023-04-21T16:15:37.852Z,59.42
2023-04-21T16:17:56.304Z,59.22
2023-04-21T16:20:14.731Z,60.08
2023-04-21T16:22:32.088Z,59.87
2023-04-21T16:24:49.141Z,60.38
2023-04-21T16:27:06.363Z,59.89
2023-04-21T16:29:23.236Z,60.79
2023-04-21T16:31:40.182Z,63.12
2023-04-21T16:33:57.106Z,64.74
2023-04-21T16:36:14.379Z,67.28
2023-04-21T16:38:31.667Z,68.12
2023-04-21T16:40:49.058Z,70.44
2023-04-21T16:43:06.392Z,73.16
2023-04-21T16:45:23.331Z,74.51
2023-04-21T16:47:42.043Z,75.04
2023-04-21T16:49:59.518Z,75.41
2023-04-21T16:52:17.732Z,76.08
2023-04-21T16:54:34.700Z,75.28
2023-04-21T16:56:51.751Z,75.01
2023-04-21T16:59:08.765Z,76.07
2023-04-21T17:01:26.179Z,76.21
2023-04-21T17:03:43.609Z,77.50
2023-04-21T17:06:00.729Z,78.06
2023-04-21T17:08:18.039Z,78.02
2023-04-21T17:10:35.316Z,77.83
2023-04-21T17:12:52.270Z,79.48
2023-04-21T17:15:09.252Z,79.74
2023-04-21T17:17:26.172Z,80.73
2023-04-21T17:19:43.473Z,81.48
2023-04-21T17:22:00.421Z,80.34
2023-04-21T17:24:17.447Z,82.14
2023-04-21T17:26:34.482Z,82.26
2023-04-21T17:28:51.420Z,81.38
2023-04-21T17:31:15.801Z,81.57
2023-04-21T17:33:33.543Z,84.99
2023-04-21T17:36:02.230Z,83.78
2023-04-21T17:38:20.563Z,84.88
2023-04-21T17:40:37.628Z,83.56
2023-04-21T17:42:55.633Z,85.05
2023-04-21T17:45:12.547Z,84.61
2023-04-21T17:47:30.575Z,85.97
2023-04-21T17:49:47.568Z,85.19
2023-04-21T17:52:04.532Z,86.70
2023-04-21T17:54:21.911Z,87.04
2023-04-21T17:56:39.244Z,85.88
2023-04-21T17:58:56.516Z,86.80
2023-04-21T18:01:13.482Z,86.43
2023-04-21T18:03:31.905Z,85.44
2023-04-21T18:05:49.418Z,87.73
2023-04-21T18:08:06.352Z,86.92
2023-04-21T18:10:23.395Z,87.68
2023-04-21T18:12:41.664Z,88.38
2023-04-21T18:14:58.750Z,88.90
2023-04-21T18:17:17.412Z,89.96
2023-04-21T18:19:34.618Z,90.29
2023-04-21T18:21:51.566Z,89.07
2023-04-21T18:24:08.867Z,90.23
2023-04-21T18:26:26.098Z,90.69
2023-04-21T18:28:44.333Z,90.72
2023-04-21T18:31:02.353Z,89.87
2023-04-21T18:33:19.604Z,90.39
2023-04-21T18:35:36.653Z,90.42
2023-04-21T18:37:54.611Z,89.97
2023-04-21T18:40:11.629Z,89.79
2023-04-21T18:42:29.002Z,90.68
2023-04-21T18:44:46.226Z,89.22
2023-04-21T18:47:03.354Z,87.99
2023-04-21T18:49:20.447Z,87.81
2023-04-21T18:51:37.526Z,88.32
2023-04-21T18:53:54.580Z,88.79
2023-04-21T18:56:11.865Z,88.80
2023-04-21T18:58:28.735Z,89.57
2023-04-21T19:00:46.063Z,89.18
2023-04-21T19:03:03.509Z,87.56
2023-04-21T19:05:20.682Z,88.46
2023-04-21T19:07:37.936Z,88.19
2023-04-21T19:09:55.264Z,88.06
2023-04-21T19:12:12.153Z,88.77
2023-04-21T19:14:36.861Z,89.32
2023-04-21T19:16:59.776Z,89.68
2023-04-21T19:19:17.534Z,89.09
2023-04-21T19:21:34.563Z,88.14
2023-04-21T19:23:51.454Z,89.07
2023-04-21T19:26:08.728Z,89.22
2023-04-21T19:28:25.959Z,88.64
2023-04-21T19:30:43.159Z,89.30
2023-04-21T19:33:00.529Z,89.85
2023-04-21T19:35:17.868Z,90.18
2023-04-21T19:37:35.326Z,88.89
2023-04-21T19:39:52.743Z,88.39
2023-04-21T19:42:09.733Z,88.76
2023-04-21T19:44:26.618Z,89.94
2023-04-21T19:46:43.803Z,89.42
2023-04-21T19:49:01.133Z,89.97
2023-04-21T19:51:18.134Z,90.58
2023-04-21T19:53:36.198Z,90.55
2023-04-21T19:55:53.695Z,90.21
2023-04-21T19:58:11.079Z,89.61
2023-04-21T20:00:28.370Z,90.89
2023-04-21T20:02:45.526Z,89.43
2023-04-21T20:05:03.139Z,90.29
2023-04-21T20:07:20.197Z,89.71
2023-04-21T20:09:37.381Z,89.35
2023-04-21T20:11:54.601Z,89.58
2023-04-21T20:14:11.607Z,89.66
2023-04-21T20:16:28.814Z,90.03
2023-04-21T20:18:46.292Z,91.30
2023-04-21T20:21:03.701Z,90.65
2023-04-21T20:23:20.950Z,91.02
2023-04-21T20:25:37.939Z,90.53
2023-04-21T20:27:55.173Z,90.53
2023-04-21T20:30:13.139Z,91.01
2023-04-21T20:32:31.203Z,91.77
2023-04-21T20:34:48.295Z,91.57
2023-04-21T20:37:05.218Z,91.96
2023-04-21T20:39:22.530Z,91.68
2023-04-21T20:41:39.651Z,91.60
2023-04-21T20:43:56.959Z,92.22
2023-04-21T20:46:14.074Z,91.37
2023-04-21T20:48:31.421Z,92.33
2023-04-21T20:50:50.641Z,91.83
2023-04-21T20:53:08.533Z,91.69
2023-04-21T20:55:26.535Z,92.02
2023-04-21T20:57:44.578Z,92.12
2023-04-21T21:00:01.885Z,92.00
2023-04-21T21:02:19.080Z,91.12
2023-04-21T21:04:36.456Z,92.23
2023-04-21T21:06:54.540Z,91.83
2023-04-21T21:09:11.654Z,91.14
2023-04-21T21:11:28.598Z,92.19
2023-04-21T21:13:45.586Z,91.86
2023-04-21T21:16:02.620Z,92.78
2023-04-21T21:18:19.656Z,91.48
2023-04-21T21:20:36.650Z,92.64
2023-04-21T21:22:53.527Z,93.30
2023-04-21T21:25:10.533Z,92.61
2023-04-21T21:27:27.492Z,93.26
2023-04-21T21:29:44.458Z,92.08
2023-04-21T21:32:01.546Z,92.45
2023-04-21T21:34:18.638Z,93.07
2023-04-21T21:36:35.666Z,93.15
2023-04-21T21:38:53.600Z,93.03
2023-04-21T21:41:10.640Z,91.59
2023-04-21T21:43:27.660Z,91.86
2023-04-21T21:45:45.055Z,91.65
2023-04-21T21:48:03.088Z,93.21
2023-04-21T21:50:19.985Z,93.57
2023-04-21T21:52:36.992Z,93.39
2023-04-21T21:54:54.917Z,92.54
2023-04-21T21:57:11.958Z,92.33
2023-04-21T21:59:29.000Z,92.32
2023-04-21T22:01:46.083Z,92.52
2023-04-21T22:04:03.623Z,94.00
2023-04-21T22:06:20.798Z,92.64
2023-04-21T22:08:39.051Z,94.00
2023-04-21T22:10:56.072Z,93.72
2023-04-21T22:13:13.121Z,93.79
2023-04-21T22:15:31.482Z,93.75
2023-04-21T22:17:48.586Z,92.88
2023-04-21T22:20:05.810Z,93.58
2023-04-21T22:22:22.798Z,93.78
2023-04-21T22:24:40.796Z,93.56
2023-04-21T22:26:58.081Z,93.76
2023-04-21T22:29:15.324Z,93.62
2023-04-21T22:31:32.461Z,93.23
2023-04-21T22:33:50.799Z,92.73
2023-04-21T22:36:10.002Z,93.35
2023-04-21T22:38:27.053Z,93.01
2023-04-21T22:40:44.040Z,92.90
2023-04-21T22:43:01.095Z,93.79
2023-04-21T22:45:18.098Z,92.43
2023-04-21T22:47:35.317Z,93.46
2023-04-21T22:49:52.691Z,94.05
2023-04-21T22:52:09.914Z,93.65
2023-04-21T22:54:28.175Z,93.04
2023-04-21T22:56:45.242Z,93.45
2023-04-21T22:59:03.345Z,92.50
2023-04-21T23:01:20.757Z,94.05
2023-04-21T23:03:38.354Z,93.25
2023-04-21T23:05:58.365Z,94.79
2023-04-21T23:08:15.319Z,94.34
2023-04-21T23:10:32.648Z,93.38
2023-04-21T23:12:49.575Z,93.36
2023-04-21T23:15:06.414Z,93.40
2023-04-21T23:17:24.324Z,93.85
2023-04-21T23:19:41.507Z,94.31
2023-04-21T23:21:59.817Z,94.94
2023-04-21T23:24:16.826Z,93.43
2023-04-21T23:26:33.754Z,94.90
2023-04-21T23:28:51.022Z,93.72
2023-04-21T23:31:08.042Z,93.88
2023-04-21T23:33:25.368Z,95.15
2023-04-21T23:35:42.452Z,93.78
2023-04-21T23:37:59.741Z,95.14
2023-04-21T23:40:17.075Z,95.12
2023-04-21T23:42:34.176Z,93.87
2023-04-21T23:44:52.225Z,94.40
2023-04-21T23:47:09.126Z,94.60
2023-04-21T23:49:26.369Z,93.81
2023-04-21T23:51:43.260Z,95.13
2023-04-21T23:54:01.683Z,94.00
2023-04-21T23:56:19.036Z,94.99
2023-04-21T23:58:36.274Z,94.99
